sensor_id;sensor_type;location;lat;lon;timestamp;P1;durP1;ratioP1;P2;durP2;ratioP2
19903;SDS011;10114;50.970;4.962;2022-08-01T00:00:23;4.25;;;1.40;;
19903;SDS011;10114;50.970;4.962;2022-08-01T00:02:49;4.78;;;1.48;;
19903;SDS011;10114;50.970;4.962;2022-08-01T00:05:15;3.83;;;1.40;;
19903;SDS011;10114;50.970;4.962;2022-08-01T00:07:41;4.43;;;1.60;;
19903;SDS011;10114;50.970;4.962;2022-08-01T00:10:08;5.25;;;1.63;;
19903;SDS011;10114;50.970;4.962;2022-08-01T00:12:35;5.65;;;1.95;;
19903;SDS011;10114;50.970;4.962;2022-08-01T00:15:01;3.45;;;1.42;;
19903;SDS011;10114;50.970;4.962;2022-08-01T00:17:27;4.55;;;1.42;;
19903;SDS011;10114;50.970;4.962;2022-08-01T00:19:53;4.15;;;1.77;;
19903;SDS011;10114;50.970;4.962;2022-08-01T00:22:19;4.50;;;1.65;;
19903;SDS011;10114;50.970;4.962;2022-08-01T00:24:45;7.53;;;2.10;;
19903;SDS011;10114;50.970;4.962;2022-08-01T00:27:11;4.72;;;1.80;;
19903;SDS011;10114;50.970;4.962;2022-08-01T00:29:37;6.82;;;1.88;;
19903;SDS011;10114;50.970;4.962;2022-08-01T00:32:03;4.53;;;1.77;;
19903;SDS011;10114;50.970;4.962;2022-08-01T00:34:29;7.68;;;2.03;;
19903;SDS011;10114;50.970;4.962;2022-08-01T00:36:55;7.03;;;2.08;;
19903;SDS011;10114;50.970;4.962;2022-08-01T00:39:21;8.45;;;2.17;;
19903;SDS011;10114;50.970;4.962;2022-08-01T00:41:47;5.65;;;2.08;;
19903;SDS011;10114;50.970;4.962;2022-08-01T00:44:13;4.68;;;1.90;;
19903;SDS011;10114;50.970;4.962;2022-08-01T00:46:39;5.63;;;2.28;;
19903;SDS011;10114;50.970;4.962;2022-08-01T00:49:05;8.45;;;2.40;;
19903;SDS011;10114;50.970;4.962;2022-08-01T00:51:31;5.18;;;2.17;;
19903;SDS011;10114;50.970;4.962;2022-08-01T00:53:58;6.97;;;2.20;;
19903;SDS011;10114;50.970;4.962;2022-08-01T00:56:24;8.13;;;2.38;;
19903;SDS011;10114;50.970;4.962;2022-08-01T00:58:51;5.45;;;2.40;;
19903;SDS011;10114;50.970;4.962;2022-08-01T01:01:17;5.18;;;2.22;;
19903;SDS011;10114;50.970;4.962;2022-08-01T01:03:45;5.80;;;2.47;;
19903;SDS011;10114;50.970;4.962;2022-08-01T01:08:54;8.95;;;2.47;;
19903;SDS011;10114;50.970;4.962;2022-08-01T01:11:25;8.30;;;2.78;;
19903;SDS011;10114;50.970;4.962;2022-08-01T01:13:54;8.77;;;2.55;;
19903;SDS011;10114;50.970;4.962;2022-08-01T01:16:23;8.20;;;2.75;;
19903;SDS011;10114;50.970;4.962;2022-08-01T01:18:51;6.70;;;2.60;;
19903;SDS011;10114;50.970;4.962;2022-08-01T01:31:57;9.82;;;3.40;;
19903;SDS011;10114;50.970;4.962;2022-08-01T01:34:24;7.07;;;3.05;;
19903;SDS011;10114;50.970;4.962;2022-08-01T01:36:52;6.15;;;3.10;;
19903;SDS011;10114;50.970;4.962;2022-08-01T01:39:20;9.98;;;3.30;;
19903;SDS011;10114;50.970;4.962;2022-08-01T01:41:47;7.20;;;2.97;;
19903;SDS011;10114;50.970;4.962;2022-08-01T01:44:14;7.93;;;3.08;;
19903;SDS011;10114;50.970;4.962;2022-08-01T01:46:41;9.20;;;3.00;;
19903;SDS011;10114;50.970;4.962;2022-08-01T01:49:07;7.60;;;3.38;;
19903;SDS011;10114;50.970;4.962;2022-08-01T01:51:37;5.78;;;2.95;;
19903;SDS011;10114;50.970;4.962;2022-08-01T01:54:04;6.68;;;3.55;;
19903;SDS011;10114;50.970;4.962;2022-08-01T01:56:30;8.98;;;3.20;;
19903;SDS011;10114;50.970;4.962;2022-08-01T01:58:59;7.28;;;3.00;;
19903;SDS011;10114;50.970;4.962;2022-08-01T02:01:27;9.95;;;3.80;;
19903;SDS011;10114;50.970;4.962;2022-08-01T02:03:54;6.05;;;3.22;;
19903;SDS011;10114;50.970;4.962;2022-08-01T02:06:21;12.00;;;3.60;;
19903;SDS011;10114;50.970;4.962;2022-08-01T02:08:49;9.00;;;3.50;;
19903;SDS011;10114;50.970;4.962;2022-08-01T02:11:15;7.47;;;3.00;;
19903;SDS011;10114;50.970;4.962;2022-08-01T02:13:50;8.00;;;3.50;;
19903;SDS011;10114;50.970;4.962;2022-08-01T02:16:17;8.25;;;3.70;;
19903;SDS011;10114;50.970;4.962;2022-08-01T02:18:44;11.93;;;4.05;;
19903;SDS011;10114;50.970;4.962;2022-08-01T02:21:12;10.82;;;4.30;;
19903;SDS011;10114;50.970;4.962;2022-08-01T02:23:39;10.07;;;3.70;;
19903;SDS011;10114;50.970;4.962;2022-08-01T02:26:07;7.18;;;3.80;;
19903;SDS011;10114;50.970;4.962;2022-08-01T02:28:36;7.80;;;3.92;;
19903;SDS011;10114;50.970;4.962;2022-08-01T02:31:12;7.45;;;3.90;;
19903;SDS011;10114;50.970;4.962;2022-08-01T02:33:42;9.70;;;4.07;;
19903;SDS011;10114;50.970;4.962;2022-08-01T02:36:09;13.93;;;4.20;;
19903;SDS011;10114;50.970;4.962;2022-08-01T02:38:37;7.70;;;3.65;;
19903;SDS011;10114;50.970;4.962;2022-08-01T02:41:07;9.15;;;3.97;;
19903;SDS011;10114;50.970;4.962;2022-08-01T02:43:34;11.07;;;3.85;;
19903;SDS011;10114;50.970;4.962;2022-08-01T02:46:02;10.52;;;4.53;;
19903;SDS011;10114;50.970;4.962;2022-08-01T02:48:29;11.80;;;4.63;;
19903;SDS011;10114;50.970;4.962;2022-08-01T02:50:58;10.93;;;4.47;;
19903;SDS011;10114;50.970;4.962;2022-08-01T02:53:24;9.05;;;4.50;;
19903;SDS011;10114;50.970;4.962;2022-08-01T02:55:51;10.88;;;4.20;;
19903;SDS011;10114;50.970;4.962;2022-08-01T02:58:18;10.45;;;4.50;;
19903;SDS011;10114;50.970;4.962;2022-08-01T03:00:48;11.93;;;4.30;;
19903;SDS011;10114;50.970;4.962;2022-08-01T03:03:15;8.25;;;4.22;;
19903;SDS011;10114;50.970;4.962;2022-08-01T03:05:41;10.55;;;4.60;;
19903;SDS011;10114;50.970;4.962;2022-08-01T03:08:09;8.27;;;4.93;;
19903;SDS011;10114;50.970;4.962;2022-08-01T03:10:36;13.05;;;5.72;;
19903;SDS011;10114;50.970;4.962;2022-08-01T03:13:03;9.63;;;5.15;;
19903;SDS011;10114;50.970;4.962;2022-08-01T03:15:30;12.70;;;4.97;;
19903;SDS011;10114;50.970;4.962;2022-08-01T03:17:56;9.70;;;5.18;;
19903;SDS011;10114;50.970;4.962;2022-08-01T03:20:23;11.32;;;5.65;;
19903;SDS011;10114;50.970;4.962;2022-08-01T03:22:50;18.58;;;8.10;;
19903;SDS011;10114;50.970;4.962;2022-08-01T03:25:17;19.35;;;9.75;;
19903;SDS011;10114;50.970;4.962;2022-08-01T03:27:44;19.33;;;10.35;;
19903;SDS011;10114;50.970;4.962;2022-08-01T03:30:11;25.60;;;11.43;;
19903;SDS011;10114;50.970;4.962;2022-08-01T03:32:37;18.05;;;9.38;;
19903;SDS011;10114;50.970;4.962;2022-08-01T03:35:04;22.75;;;10.77;;
19903;SDS011;10114;50.970;4.962;2022-08-01T03:37:37;20.10;;;11.48;;
19903;SDS011;10114;50.970;4.962;2022-08-01T03:40:05;26.38;;;13.23;;
19903;SDS011;10114;50.970;4.962;2022-08-01T03:42:33;35.13;;;15.32;;
19903;SDS011;10114;50.970;4.962;2022-08-01T03:45:02;37.47;;;15.80;;
19903;SDS011;10114;50.970;4.962;2022-08-01T03:47:30;32.47;;;15.68;;
19903;SDS011;10114;50.970;4.962;2022-08-01T03:49:57;33.50;;;15.98;;
19903;SDS011;10114;50.970;4.962;2022-08-01T03:52:24;36.45;;;16.45;;
19903;SDS011;10114;50.970;4.962;2022-08-01T03:54:51;37.35;;;15.82;;
19903;SDS011;10114;50.970;4.962;2022-08-01T03:57:18;35.03;;;16.23;;
19903;SDS011;10114;50.970;4.962;2022-08-01T03:59:44;31.42;;;15.40;;
19903;SDS011;10114;50.970;4.962;2022-08-01T04:02:11;30.35;;;15.23;;
19903;SDS011;10114;50.970;4.962;2022-08-01T04:04:38;37.67;;;16.88;;
19903;SDS011;10114;50.970;4.962;2022-08-01T04:07:05;31.98;;;15.73;;
19903;SDS011;10114;50.970;4.962;2022-08-01T04:09:32;32.45;;;15.73;;
19903;SDS011;10114;50.970;4.962;2022-08-01T04:11:59;33.35;;;15.63;;
19903;SDS011;10114;50.970;4.962;2022-08-01T04:14:28;38.97;;;17.10;;
19903;SDS011;10114;50.970;4.962;2022-08-01T04:16:54;37.08;;;16.33;;
19903;SDS011;10114;50.970;4.962;2022-08-01T04:19:20;26.65;;;14.50;;
19903;SDS011;10114;50.970;4.962;2022-08-01T04:21:46;33.15;;;15.85;;
19903;SDS011;10114;50.970;4.962;2022-08-01T04:24:13;32.67;;;15.60;;
19903;SDS011;10114;50.970;4.962;2022-08-01T04:26:41;33.70;;;16.77;;
19903;SDS011;10114;50.970;4.962;2022-08-01T04:29:08;30.52;;;16.90;;
19903;SDS011;10114;50.970;4.962;2022-08-01T04:31:35;31.88;;;15.90;;
19903;SDS011;10114;50.970;4.962;2022-08-01T04:34:02;31.30;;;15.52;;
19903;SDS011;10114;50.970;4.962;2022-08-01T04:36:28;33.20;;;15.68;;
19903;SDS011;10114;50.970;4.962;2022-08-01T04:38:57;32.95;;;17.25;;
19903;SDS011;10114;50.970;4.962;2022-08-01T04:41:25;35.03;;;16.83;;
19903;SDS011;10114;50.970;4.962;2022-08-01T04:43:51;29.80;;;17.05;;
19903;SDS011;10114;50.970;4.962;2022-08-01T04:46:19;35.58;;;17.27;;
19903;SDS011;10114;50.970;4.962;2022-08-01T04:48:45;39.60;;;19.27;;
19903;SDS011;10114;50.970;4.962;2022-08-01T04:51:12;34.00;;;18.48;;
19903;SDS011;10114;50.970;4.962;2022-08-01T04:53:40;36.25;;;19.27;;
19903;SDS011;10114;50.970;4.962;2022-08-01T04:56:06;40.67;;;19.75;;
19903;SDS011;10114;50.970;4.962;2022-08-01T04:58:32;44.80;;;21.70;;
19903;SDS011;10114;50.970;4.962;2022-08-01T05:00:58;38.53;;;19.45;;
19903;SDS011;10114;50.970;4.962;2022-08-01T05:03:24;35.30;;;18.83;;
19903;SDS011;10114;50.970;4.962;2022-08-01T05:05:50;32.55;;;18.83;;
19903;SDS011;10114;50.970;4.962;2022-08-01T05:08:16;41.13;;;22.70;;
19903;SDS011;10114;50.970;4.962;2022-08-01T05:10:42;37.78;;;19.50;;
19903;SDS011;10114;50.970;4.962;2022-08-01T05:13:08;35.05;;;18.77;;
19903;SDS011;10114;50.970;4.962;2022-08-01T05:15:35;48.08;;;20.48;;
19903;SDS011;10114;50.970;4.962;2022-08-01T05:18:01;40.20;;;21.42;;
19903;SDS011;10114;50.970;4.962;2022-08-01T05:20:27;45.97;;;22.35;;
19903;SDS011;10114;50.970;4.962;2022-08-01T05:22:53;43.72;;;21.45;;
19903;SDS011;10114;50.970;4.962;2022-08-01T05:25:19;44.42;;;20.33;;
19903;SDS011;10114;50.970;4.962;2022-08-01T05:27:46;40.72;;;19.70;;
19903;SDS011;10114;50.970;4.962;2022-08-01T05:30:12;43.15;;;21.98;;
19903;SDS011;10114;50.970;4.962;2022-08-01T05:32:38;42.53;;;20.05;;
19903;SDS011;10114;50.970;4.962;2022-08-01T05:35:05;35.50;;;20.38;;
19903;SDS011;10114;50.970;4.962;2022-08-01T05:37:32;38.10;;;20.67;;
19903;SDS011;10114;50.970;4.962;2022-08-01T05:39:58;40.55;;;19.17;;
19903;SDS011;10114;50.970;4.962;2022-08-01T05:42:24;37.15;;;18.95;;
19903;SDS011;10114;50.970;4.962;2022-08-01T05:44:50;34.53;;;19.27;;
19903;SDS011;10114;50.970;4.962;2022-08-01T05:47:16;41.75;;;19.48;;
19903;SDS011;10114;50.970;4.962;2022-08-01T05:49:43;34.30;;;18.33;;
19903;SDS011;10114;50.970;4.962;2022-08-01T05:52:09;35.50;;;18.42;;
19903;SDS011;10114;50.970;4.962;2022-08-01T05:54:35;37.63;;;19.08;;
19903;SDS011;10114;50.970;4.962;2022-08-01T05:57:01;37.28;;;19.05;;
19903;SDS011;10114;50.970;4.962;2022-08-01T05:59:28;33.40;;;17.15;;
19903;SDS011;10114;50.970;4.962;2022-08-01T06:01:54;36.40;;;19.23;;
19903;SDS011;10114;50.970;4.962;2022-08-01T06:04:20;37.05;;;18.48;;
19903;SDS011;10114;50.970;4.962;2022-08-01T06:06:46;40.10;;;19.10;;
19903;SDS011;10114;50.970;4.962;2022-08-01T06:09:12;32.40;;;19.48;;
19903;SDS011;10114;50.970;4.962;2022-08-01T06:11:38;35.70;;;18.48;;
19903;SDS011;10114;50.970;4.962;2022-08-01T06:14:04;30.10;;;16.02;;
19903;SDS011;10114;50.970;4.962;2022-08-01T06:16:30;32.67;;;17.15;;
19903;SDS011;10114;50.970;4.962;2022-08-01T06:18:56;32.78;;;16.77;;
19903;SDS011;10114;50.970;4.962;2022-08-01T06:21:22;35.05;;;17.02;;
19903;SDS011;10114;50.970;4.962;2022-08-01T06:23:48;34.55;;;16.88;;
19903;SDS011;10114;50.970;4.962;2022-08-01T06:26:17;30.35;;;16.27;;
19903;SDS011;10114;50.970;4.962;2022-08-01T06:28:43;30.73;;;15.50;;
19903;SDS011;10114;50.970;4.962;2022-08-01T06:31:09;26.27;;;13.35;;
19903;SDS011;10114;50.970;4.962;2022-08-01T06:33:37;30.23;;;14.45;;
19903;SDS011;10114;50.970;4.962;2022-08-01T06:36:03;21.65;;;12.13;;
19903;SDS011;10114;50.970;4.962;2022-08-01T06:38:29;23.02;;;12.07;;
19903;SDS011;10114;50.970;4.962;2022-08-01T06:40:55;20.10;;;11.55;;
19903;SDS011;10114;50.970;4.962;2022-08-01T06:43:21;18.77;;;10.13;;
19903;SDS011;10114;50.970;4.962;2022-08-01T06:45:47;21.45;;;11.30;;
19903;SDS011;10114;50.970;4.962;2022-08-01T06:48:13;16.13;;;9.40;;
19903;SDS011;10114;50.970;4.962;2022-08-01T06:50:39;17.80;;;9.05;;
19903;SDS011;10114;50.970;4.962;2022-08-01T06:53:06;19.55;;;10.57;;
19903;SDS011;10114;50.970;4.962;2022-08-01T06:55:32;17.33;;;9.82;;
19903;SDS011;10114;50.970;4.962;2022-08-01T06:57:58;19.13;;;10.60;;
19903;SDS011;10114;50.970;4.962;2022-08-01T07:00:24;17.63;;;9.70;;
19903;SDS011;10114;50.970;4.962;2022-08-01T07:02:51;19.35;;;9.70;;
19903;SDS011;10114;50.970;4.962;2022-08-01T07:05:17;18.40;;;10.65;;
19903;SDS011;10114;50.970;4.962;2022-08-01T07:07:43;17.90;;;8.32;;
19903;SDS011;10114;50.970;4.962;2022-08-01T07:10:10;11.15;;;7.10;;
19903;SDS011;10114;50.970;4.962;2022-08-01T07:12:36;14.55;;;7.97;;
19903;SDS011;10114;50.970;4.962;2022-08-01T07:15:06;14.05;;;7.72;;
19903;SDS011;10114;50.970;4.962;2022-08-01T07:17:32;11.23;;;5.93;;
19903;SDS011;10114;50.970;4.962;2022-08-01T07:20:01;14.27;;;8.07;;
19903;SDS011;10114;50.970;4.962;2022-08-01T07:22:27;14.73;;;7.40;;
19903;SDS011;10114;50.970;4.962;2022-08-01T07:24:53;12.48;;;6.60;;
19903;SDS011;10114;50.970;4.962;2022-08-01T07:27:20;10.10;;;5.80;;
19903;SDS011;10114;50.970;4.962;2022-08-01T07:29:46;11.05;;;6.07;;
19903;SDS011;10114;50.970;4.962;2022-08-01T07:32:12;14.07;;;6.20;;
19903;SDS011;10114;50.970;4.962;2022-08-01T07:34:38;12.88;;;6.63;;
19903;SDS011;10114;50.970;4.962;2022-08-01T07:37:04;14.48;;;7.68;;
19903;SDS011;10114;50.970;4.962;2022-08-01T07:39:30;11.90;;;5.90;;
19903;SDS011;10114;50.970;4.962;2022-08-01T07:41:56;14.43;;;7.25;;
19903;SDS011;10114;50.970;4.962;2022-08-01T07:44:22;11.10;;;7.47;;
19903;SDS011;10114;50.970;4.962;2022-08-01T07:46:48;10.32;;;6.38;;
19903;SDS011;10114;50.970;4.962;2022-08-01T07:49:14;12.68;;;7.95;;
19903;SDS011;10114;50.970;4.962;2022-08-01T07:51:41;13.55;;;6.85;;
19903;SDS011;10114;50.970;4.962;2022-08-01T07:54:07;15.80;;;6.40;;
19903;SDS011;10114;50.970;4.962;2022-08-01T07:56:33;11.68;;;6.00;;
19903;SDS011;10114;50.970;4.962;2022-08-01T07:58:59;10.82;;;5.70;;
19903;SDS011;10114;50.970;4.962;2022-08-01T08:01:25;10.77;;;5.80;;
19903;SDS011;10114;50.970;4.962;2022-08-01T08:03:51;10.55;;;5.60;;
19903;SDS011;10114;50.970;4.962;2022-08-01T08:06:17;14.25;;;6.18;;
19903;SDS011;10114;50.970;4.962;2022-08-01T08:08:43;9.50;;;5.35;;
19903;SDS011;10114;50.970;4.962;2022-08-01T08:11:10;11.40;;;4.20;;
19903;SDS011;10114;50.970;4.962;2022-08-01T08:13:36;6.10;;;2.85;;
19903;SDS011;10114;50.970;4.962;2022-08-01T08:16:02;6.60;;;2.40;;
19903;SDS011;10114;50.970;4.962;2022-08-01T08:18:28;5.93;;;2.78;;
19903;SDS011;10114;50.970;4.962;2022-08-01T08:20:54;7.90;;;3.03;;
19903;SDS011;10114;50.970;4.962;2022-08-01T08:23:20;6.95;;;2.80;;
19903;SDS011;10114;50.970;4.962;2022-08-01T08:26:04;9.15;;;2.67;;
19903;SDS011;10114;50.970;4.962;2022-08-01T08:28:30;5.32;;;2.03;;
19903;SDS011;10114;50.970;4.962;2022-08-01T08:30:56;4.22;;;1.63;;
19903;SDS011;10114;50.970;4.962;2022-08-01T08:33:22;5.05;;;1.20;;
19903;SDS011;10114;50.970;4.962;2022-08-01T08:35:49;5.53;;;1.58;;
19903;SDS011;10114;50.970;4.962;2022-08-01T08:38:15;3.25;;;1.42;;
19903;SDS011;10114;50.970;4.962;2022-08-01T08:40:41;2.25;;;1.17;;
19903;SDS011;10114;50.970;4.962;2022-08-01T08:43:07;3.92;;;1.52;;
19903;SDS011;10114;50.970;4.962;2022-08-01T08:45:33;5.45;;;1.85;;
19903;SDS011;10114;50.970;4.962;2022-08-01T08:47:59;4.57;;;2.40;;
19903;SDS011;10114;50.970;4.962;2022-08-01T08:50:26;5.03;;;3.72;;
19903;SDS011;10114;50.970;4.962;2022-08-01T08:52:52;6.00;;;3.53;;
19903;SDS011;10114;50.970;4.962;2022-08-01T08:55:20;6.40;;;3.83;;
19903;SDS011;10114;50.970;4.962;2022-08-01T08:57:46;4.97;;;3.03;;
19903;SDS011;10114;50.970;4.962;2022-08-01T09:00:13;6.20;;;3.10;;
19903;SDS011;10114;50.970;4.962;2022-08-01T09:02:42;5.30;;;3.15;;
19903;SDS011;10114;50.970;4.962;2022-08-01T09:05:09;4.10;;;2.60;;
19903;SDS011;10114;50.970;4.962;2022-08-01T09:07:35;3.78;;;2.13;;
19903;SDS011;10114;50.970;4.962;2022-08-01T09:10:02;4.95;;;2.03;;
19903;SDS011;10114;50.970;4.962;2022-08-01T09:12:28;2.97;;;1.50;;
19903;SDS011;10114;50.970;4.962;2022-08-01T09:14:54;3.45;;;2.00;;
19903;SDS011;10114;50.970;4.962;2022-08-01T09:17:20;4.57;;;1.77;;
19903;SDS011;10114;50.970;4.962;2022-08-01T09:19:48;3.70;;;1.70;;
19903;SDS011;10114;50.970;4.962;2022-08-01T09:22:17;3.75;;;1.90;;
19903;SDS011;10114;50.970;4.962;2022-08-01T09:27:46;1.92;;;0.90;;
19903;SDS011;10114;50.970;4.962;2022-08-01T09:30:16;2.08;;;1.05;;
19903;SDS011;10114;50.970;4.962;2022-08-01T09:32:55;3.85;;;1.30;;
19903;SDS011;10114;50.970;4.962;2022-08-01T09:35:22;4.10;;;1.40;;
19903;SDS011;10114;50.970;4.962;2022-08-01T09:37:49;2.45;;;1.30;;
19903;SDS011;10114;50.970;4.962;2022-08-01T09:40:15;4.05;;;1.20;;
19903;SDS011;10114;50.970;4.962;2022-08-01T09:42:41;3.28;;;1.13;;
19903;SDS011;10114;50.970;4.962;2022-08-01T09:45:07;2.72;;;1.10;;
19903;SDS011;10114;50.970;4.962;2022-08-01T09:47:40;1.88;;;1.00;;
19903;SDS011;10114;50.970;4.962;2022-08-01T09:50:06;2.97;;;1.00;;
19903;SDS011;10114;50.970;4.962;2022-08-01T09:52:32;3.80;;;0.93;;
19903;SDS011;10114;50.970;4.962;2022-08-01T09:54:59;3.00;;;1.13;;
19903;SDS011;10114;50.970;4.962;2022-08-01T09:57:26;2.22;;;0.80;;
19903;SDS011;10114;50.970;4.962;2022-08-01T09:59:54;1.63;;;0.70;;
19903;SDS011;10114;50.970;4.962;2022-08-01T10:02:37;1.90;;;0.70;;
19903;SDS011;10114;50.970;4.962;2022-08-01T10:05:08;1.63;;;0.75;;
19903;SDS011;10114;50.970;4.962;2022-08-01T10:07:35;2.80;;;1.00;;
19903;SDS011;10114;50.970;4.962;2022-08-01T10:10:09;1.58;;;0.88;;
19903;SDS011;10114;50.970;4.962;2022-08-01T10:12:35;2.72;;;1.15;;
19903;SDS011;10114;50.970;4.962;2022-08-01T10:15:03;3.30;;;1.00;;
19903;SDS011;10114;50.970;4.962;2022-08-01T10:17:29;2.88;;;0.85;;
19903;SDS011;10114;50.970;4.962;2022-08-01T10:19:55;2.50;;;0.90;;
19903;SDS011;10114;50.970;4.962;2022-08-01T10:22:22;1.95;;;0.75;;
19903;SDS011;10114;50.970;4.962;2022-08-01T10:24:49;1.08;;;0.60;;
19903;SDS011;10114;50.970;4.962;2022-08-01T10:27:16;1.77;;;0.73;;
19903;SDS011;10114;50.970;4.962;2022-08-01T10:29:47;2.42;;;0.90;;
19903;SDS011;10114;50.970;4.962;2022-08-01T10:32:15;3.70;;;0.95;;
19903;SDS011;10114;50.970;4.962;2022-08-01T10:34:41;2.78;;;1.00;;
19903;SDS011;10114;50.970;4.962;2022-08-01T10:37:07;1.85;;;0.90;;
19903;SDS011;10114;50.970;4.962;2022-08-01T10:39:35;1.67;;;0.93;;
19903;SDS011;10114;50.970;4.962;2022-08-01T10:42:01;1.73;;;0.80;;
19903;SDS011;10114;50.970;4.962;2022-08-01T10:44:28;2.50;;;0.85;;
19903;SDS011;10114;50.970;4.962;2022-08-01T10:46:57;1.85;;;0.90;;
19903;SDS011;10114;50.970;4.962;2022-08-01T10:49:24;2.25;;;0.90;;
19903;SDS011;10114;50.970;4.962;2022-08-01T10:51:52;1.65;;;0.80;;
19903;SDS011;10114;50.970;4.962;2022-08-01T10:54:19;3.92;;;0.60;;
19903;SDS011;10114;50.970;4.962;2022-08-01T10:56:48;3.92;;;0.70;;
19903;SDS011;10114;50.970;4.962;2022-08-01T10:59:25;2.25;;;0.75;;
19903;SDS011;10114;50.970;4.962;2022-08-01T11:04:32;1.58;;;0.77;;
19903;SDS011;10114;50.970;4.962;2022-08-01T11:09:31;1.80;;;0.80;;
19903;SDS011;10114;50.970;4.962;2022-08-01T11:12:07;2.85;;;0.88;;
19903;SDS011;10114;50.970;4.962;2022-08-01T11:15:17;2.70;;;0.80;;
19903;SDS011;10114;50.970;4.962;2022-08-01T11:17:30;2.63;;;1.02;;
19903;SDS011;10114;50.970;4.962;2022-08-01T11:20:10;5.88;;;0.85;;
19903;SDS011;10114;50.970;4.962;2022-08-01T11:25:22;2.42;;;0.77;;
19903;SDS011;10114;50.970;4.962;2022-08-01T11:27:48;1.52;;;0.70;;
19903;SDS011;10114;50.970;4.962;2022-08-01T11:32:47;5.28;;;1.02;;
19903;SDS011;10114;50.970;4.962;2022-08-01T11:35:13;2.33;;;0.90;;
19903;SDS011;10114;50.970;4.962;2022-08-01T11:37:39;3.10;;;1.05;;
19903;SDS011;10114;50.970;4.962;2022-08-01T11:40:18;3.80;;;1.15;;
19903;SDS011;10114;50.970;4.962;2022-08-01T11:42:45;3.55;;;1.13;;
19903;SDS011;10114;50.970;4.962;2022-08-01T11:45:11;4.43;;;1.00;;
19903;SDS011;10114;50.970;4.962;2022-08-01T11:47:50;3.08;;;1.05;;
19903;SDS011;10114;50.970;4.962;2022-08-01T11:53:04;4.85;;;1.08;;
19903;SDS011;10114;50.970;4.962;2022-08-01T11:55:31;5.32;;;1.17;;
19903;SDS011;10114;50.970;4.962;2022-08-01T11:57:58;3.22;;;1.17;;
19903;SDS011;10114;50.970;4.962;2022-08-01T12:00:25;2.85;;;1.08;;
19903;SDS011;10114;50.970;4.962;2022-08-01T12:03:01;2.90;;;1.42;;
19903;SDS011;10114;50.970;4.962;2022-08-01T12:05:28;3.65;;;1.23;;
19903;SDS011;10114;50.970;4.962;2022-08-01T12:07:55;3.20;;;1.10;;
19903;SDS011;10114;50.970;4.962;2022-08-01T12:10:22;5.22;;;1.00;;
19903;SDS011;10114;50.970;4.962;2022-08-01T12:12:50;9.43;;;1.80;;
19903;SDS011;10114;50.970;4.962;2022-08-01T12:15:16;5.43;;;1.75;;
19903;SDS011;10114;50.970;4.962;2022-08-01T12:17:44;4.95;;;1.30;;
19903;SDS011;10114;50.970;4.962;2022-08-01T12:20:11;4.53;;;1.50;;
19903;SDS011;10114;50.970;4.962;2022-08-01T12:22:37;4.85;;;1.50;;
19903;SDS011;10114;50.970;4.962;2022-08-01T12:25:16;4.32;;;1.63;;
19903;SDS011;10114;50.970;4.962;2022-08-01T12:27:43;3.60;;;1.33;;
19903;SDS011;10114;50.970;4.962;2022-08-01T12:30:11;5.68;;;1.00;;
19903;SDS011;10114;50.970;4.962;2022-08-01T12:32:38;10.55;;;1.75;;
19903;SDS011;10114;50.970;4.962;2022-08-01T12:37:32;4.15;;;1.63;;
19903;SDS011;10114;50.970;4.962;2022-08-01T12:39:58;4.97;;;2.03;;
19903;SDS011;10114;50.970;4.962;2022-08-01T12:42:24;5.53;;;2.08;;
19903;SDS011;10114;50.970;4.962;2022-08-01T12:44:51;5.88;;;1.70;;
19903;SDS011;10114;50.970;4.962;2022-08-01T12:47:18;4.63;;;1.70;;
19903;SDS011;10114;50.970;4.962;2022-08-01T12:49:45;5.82;;;1.70;;
19903;SDS011;10114;50.970;4.962;2022-08-01T12:52:11;5.28;;;1.45;;
19903;SDS011;10114;50.970;4.962;2022-08-01T12:57:23;2.63;;;1.17;;
19903;SDS011;10114;50.970;4.962;2022-08-01T12:59:52;3.90;;;1.20;;
19903;SDS011;10114;50.970;4.962;2022-08-01T13:02:18;2.78;;;0.98;;
19903;SDS011;10114;50.970;4.962;2022-08-01T13:04:50;3.00;;;1.30;;
19903;SDS011;10114;50.970;4.962;2022-08-01T13:07:17;5.22;;;1.38;;
19903;SDS011;10114;50.970;4.962;2022-08-01T13:09:52;3.03;;;0.98;;
19903;SDS011;10114;50.970;4.962;2022-08-01T13:12:18;6.72;;;1.50;;
19903;SDS011;10114;50.970;4.962;2022-08-01T13:14:44;7.43;;;1.80;;
19903;SDS011;10114;50.970;4.962;2022-08-01T13:17:10;2.78;;;1.17;;
19903;SDS011;10114;50.970;4.962;2022-08-01T13:19:42;4.97;;;1.60;;
19903;SDS011;10114;50.970;4.962;2022-08-01T13:22:09;4.25;;;1.50;;
19903;SDS011;10114;50.970;4.962;2022-08-01T13:24:35;4.97;;;1.65;;
19903;SDS011;10114;50.970;4.962;2022-08-01T13:27:02;5.55;;;1.73;;
19903;SDS011;10114;50.970;4.962;2022-08-01T13:29:29;3.55;;;1.20;;
19903;SDS011;10114;50.970;4.962;2022-08-01T13:31:56;5.97;;;1.70;;
19903;SDS011;10114;50.970;4.962;2022-08-01T13:34:30;5.72;;;1.55;;
19903;SDS011;10114;50.970;4.962;2022-08-01T13:36:56;4.40;;;1.70;;
19903;SDS011;10114;50.970;4.962;2022-08-01T13:39:22;6.07;;;2.17;;
19903;SDS011;10114;50.970;4.962;2022-08-01T13:42:10;3.67;;;1.52;;
19903;SDS011;10114;50.970;4.962;2022-08-01T13:44:37;6.88;;;1.45;;
19903;SDS011;10114;50.970;4.962;2022-08-01T13:47:03;3.88;;;1.70;;
19903;SDS011;10114;50.970;4.962;2022-08-01T13:49:29;3.75;;;1.40;;
19903;SDS011;10114;50.970;4.962;2022-08-01T13:51:55;4.63;;;1.60;;
19903;SDS011;10114;50.970;4.962;2022-08-01T13:54:21;7.75;;;1.52;;
19903;SDS011;10114;50.970;4.962;2022-08-01T13:56:48;4.85;;;1.73;;
19903;SDS011;10114;50.970;4.962;2022-08-01T13:59:14;3.58;;;1.27;;
19903;SDS011;10114;50.970;4.962;2022-08-01T14:01:41;5.72;;;1.38;;
19903;SDS011;10114;50.970;4.962;2022-08-01T14:04:07;4.13;;;1.00;;
19903;SDS011;10114;50.970;4.962;2022-08-01T14:06:33;4.97;;;1.17;;
19903;SDS011;10114;50.970;4.962;2022-08-01T14:09:00;3.10;;;1.17;;
19903;SDS011;10114;50.970;4.962;2022-08-01T14:11:26;3.45;;;1.00;;
19903;SDS011;10114;50.970;4.962;2022-08-01T14:13:52;4.18;;;1.17;;
19903;SDS011;10114;50.970;4.962;2022-08-01T14:16:18;2.72;;;1.02;;
19903;SDS011;10114;50.970;4.962;2022-08-01T14:18:44;3.92;;;1.23;;
19903;SDS011;10114;50.970;4.962;2022-08-01T14:21:11;2.25;;;0.80;;
19903;SDS011;10114;50.970;4.962;2022-08-01T14:23:37;8.93;;;1.38;;
19903;SDS011;10114;50.970;4.962;2022-08-01T14:26:03;4.07;;;1.10;;
19903;SDS011;10114;50.970;4.962;2022-08-01T14:28:29;4.32;;;0.85;;
19903;SDS011;10114;50.970;4.962;2022-08-01T14:30:56;3.05;;;1.40;;
19903;SDS011;10114;50.970;4.962;2022-08-01T14:33:22;2.92;;;0.98;;
19903;SDS011;10114;50.970;4.962;2022-08-01T14:35:48;2.95;;;0.70;;
19903;SDS011;10114;50.970;4.962;2022-08-01T14:38:14;3.25;;;1.10;;
19903;SDS011;10114;50.970;4.962;2022-08-01T14:40:42;4.15;;;1.30;;
19903;SDS011;10114;50.970;4.962;2022-08-01T14:43:08;1.80;;;0.85;;
19903;SDS011;10114;50.970;4.962;2022-08-01T14:45:34;6.10;;;1.17;;
19903;SDS011;10114;50.970;4.962;2022-08-01T14:48:00;3.42;;;0.95;;
19903;SDS011;10114;50.970;4.962;2022-08-01T14:50:26;3.72;;;1.08;;
19903;SDS011;10114;50.970;4.962;2022-08-01T14:52:53;4.75;;;1.30;;
19903;SDS011;10114;50.970;4.962;2022-08-01T14:55:20;7.63;;;1.35;;
19903;SDS011;10114;50.970;4.962;2022-08-01T14:57:50;4.82;;;1.10;;
19903;SDS011;10114;50.970;4.962;2022-08-01T15:00:16;4.97;;;1.40;;
19903;SDS011;10114;50.970;4.962;2022-08-01T15:02:42;6.07;;;1.27;;
19903;SDS011;10114;50.970;4.962;2022-08-01T15:05:09;3.63;;;1.33;;
19903;SDS011;10114;50.970;4.962;2022-08-01T15:07:35;2.92;;;1.30;;
19903;SDS011;10114;50.970;4.962;2022-08-01T15:10:02;3.40;;;1.10;;
19903;SDS011;10114;50.970;4.962;2022-08-01T15:12:29;4.55;;;1.50;;
19903;SDS011;10114;50.970;4.962;2022-08-01T15:14:55;7.47;;;1.40;;